Time;durP1;ratioP1;P1;durP2;ratioP2;P2;SDS_P1;SDS_P2;PMS_P1;PMS_P2;Temp;Humidity;BMP_temperature;BMP_pressure;BME280_temperature;BME280_humidity;BME280_pressure;Samples;Min_cycle;Max_cycle;Signal;HPM_P1;HPM_P2
2021/11/15 00:00:44;;;;;;;19.15;12.45;;;9.40;99.90;;;;;;5072239;28;20126;-74
2021/11/15 00:03:12;;;;;;;16.75;12.27;;;9.40;99.90;;;;;;5055016;28;20028;-74
2021/11/15 00:05:37;;;;;;;16.95;12.23;;;9.40;99.90;;;;;;5052976;28;20028;-74
2021/11/15 00:08:04;;;;;;;18.75;12.68;;;9.40;99.90;;;;;;5047012;28;20031;-74
2021/11/15 00:10:29;;;;;;;17.55;12.32;;;9.40;99.90;;;;;;5047121;28;20078;-74
2021/11/15 00:12:55;;;;;;;21.75;12.68;;;9.50;99.90;;;;;;5056561;28;20054;-74
2021/11/15 00:15:22;;;;;;;17.23;12.65;;;9.50;99.90;;;;;;5075584;28;20035;-75
2021/11/15 00:17:48;;;;;;;19.80;12.77;;;9.40;99.90;;;;;;5073002;28;20111;-74
2021/11/15 00:20:15;;;;;;;16.15;12.10;;;9.40;99.90;;;;;;5068980;28;20025;-75
2021/11/15 00:22:41;;;;;;;21.08;13.77;;;9.30;99.90;;;;;;5084049;28;20055;-76
2021/11/15 00:25:07;;;;;;;19.40;13.00;;;9.50;99.90;;;;;;5077073;28;20075;-74
2021/11/15 00:27:33;;;;;;;18.23;12.40;;;9.40;99.90;;;;;;5069014;28;20399;-75
2021/11/15 00:30:00;;;;;;;15.02;11.30;;;9.50;99.90;;;;;;5073370;28;20024;-76
2021/11/15 00:32:27;;;;;;;14.52;10.95;;;9.50;99.90;;;;;;5062859;28;20028;-74
2021/11/15 00:34:52;;;;;;;16.80;11.40;;;9.40;99.90;;;;;;5065771;28;20025;-74
2021/11/15 00:37:18;;;;;;;17.13;13.25;;;9.40;99.90;;;;;;5072282;28;20103;-73
2021/11/15 00:39:44;;;;;;;21.95;13.90;;;9.40;99.90;;;;;;5057548;28;20642;-73
2021/11/15 00:42:09;;;;;;;17.40;11.48;;;9.40;99.90;;;;;;5072302;28;20043;-77
2021/11/15 00:44:36;;;;;;;15.18;12.20;;;9.40;99.90;;;;;;5051079;28;20028;-76
2021/11/15 00:47:03;;;;;;;20.15;11.25;;;9.40;99.90;;;;;;5082499;28;20025;-76
2021/11/15 00:49:28;;;;;;;19.27;12.60;;;9.50;99.90;;;;;;5077462;28;20029;-76
2021/11/15 00:51:54;;;;;;;15.48;11.30;;;9.40;99.90;;;;;;5088003;28;20231;-76
2021/11/15 00:54:20;;;;;;;15.52;10.65;;;9.40;99.90;;;;;;5081839;28;20028;-76
2021/11/15 00:56:45;;;;;;;16.65;9.68;;;9.40;99.90;;;;;;5073531;28;20024;-76
2021/11/15 00:59:11;;;;;;;14.15;10.48;;;9.40;99.90;;;;;;5070341;28;20071;-77
2021/11/15 01:01:37;;;;;;;13.55;10.25;;;9.40;99.90;;;;;;5056662;28;20052;-76
2021/11/15 01:04:03;;;;;;;12.30;10.02;;;9.40;99.90;;;;;;5071670;28;20495;-76
2021/11/15 01:06:28;;;;;;;14.15;10.68;;;9.40;99.90;;;;;;5072804;28;20031;-77
2021/11/15 01:08:54;;;;;;;14.18;10.68;;;9.40;99.90;;;;;;5072160;28;20028;-76
2021/11/15 01:11:20;;;;;;;12.52;10.30;;;9.40;99.90;;;;;;5071632;28;20021;-73
2021/11/15 01:13:46;;;;;;;14.20;9.13;;;9.50;99.90;;;;;;5047833;28;20108;-73
2021/11/15 01:16:12;;;;;;;12.32;8.35;;;9.40;99.90;;;;;;5048046;28;20467;-73
2021/11/15 01:18:43;;;;;;;15.52;10.63;;;9.40;99.90;;;;;;5073870;28;20111;-73
2021/11/15 01:21:11;;;;;;;11.77;9.10;;;9.40;99.90;;;;;;5073998;28;20136;-73
2021/11/15 01:23:38;;;;;;;15.35;10.82;;;9.40;99.90;;;;;;5074011;28;20028;-73
2021/11/15 01:26:06;;;;;;;15.05;9.48;;;9.30;99.90;;;;;;5073065;28;20032;-73
2021/11/15 01:28:33;;;;;;;13.18;9.90;;;9.30;99.90;;;;;;5067120;28;20017;-74
2021/11/15 01:30:59;;;;;;;15.10;9.77;;;9.30;99.90;;;;;;5069757;28;20031;-73
2021/11/15 01:33:25;;;;;;;15.70;9.60;;;9.30;99.90;;;;;;5062852;28;20111;-73
2021/11/15 01:35:50;;;;;;;15.90;10.55;;;9.30;99.90;;;;;;5068607;28;20079;-73
2021/11/15 01:38:16;;;;;;;13.50;9.98;;;9.30;99.90;;;;;;5067518;28;20089;-74
2021/11/15 01:40:42;;;;;;;14.68;9.23;;;9.30;99.90;;;;;;5069819;28;20051;-73
2021/11/15 01:43:07;;;;;;;14.32;9.25;;;9.30;99.90;;;;;;5065277;28;20484;-74
2021/11/15 01:45:35;;;;;;;14.55;9.35;;;9.30;99.90;;;;;;5069704;28;20063;-73
2021/11/15 01:48:03;;;;;;;13.02;7.53;;;9.30;99.90;;;;;;5065181;28;20023;-73
2021/11/15 01:50:30;;;;;;;11.82;8.55;;;9.30;99.90;;;;;;5054530;28;20484;-74
2021/11/15 01:52:57;;;;;;;9.95;8.32;;;9.30;99.90;;;;;;5073889;28;20017;-75
2021/11/15 01:55:23;;;;;;;12.43;7.20;;;9.20;99.90;;;;;;5064427;28;20024;-74
2021/11/15 01:57:51;;;;;;;12.10;7.40;;;9.20;99.90;;;;;;5047443;28;20024;-73
2021/11/15 02:00:26;;;;;;;9.55;7.90;;;9.10;99.90;;;;;;5069594;28;20025;-73
2021/11/15 02:02:51;;;;;;;9.73;8.10;;;9.20;99.90;;;;;;5091017;28;20043;-73
2021/11/15 02:05:17;;;;;;;10.32;7.85;;;9.10;99.90;;;;;;5093085;28;20076;-73
2021/11/15 02:07:42;;;;;;;11.27;7.82;;;9.10;99.90;;;;;;5071989;28;20029;-73
2021/11/15 02:10:10;;;;;;;12.05;8.25;;;9.10;99.90;;;;;;5069691;28;20025;-73
2021/11/15 02:12:36;;;;;;;13.55;8.77;;;9.10;99.90;;;;;;5089954;28;20029;-73
2021/11/15 02:15:03;;;;;;;9.90;7.32;;;9.10;99.90;;;;;;5067638;28;20025;-72
2021/11/15 02:17:30;;;;;;;10.35;7.93;;;9.10;99.90;;;;;;5087853;28;20016;-74
2021/11/15 02:20:00;;;;;;;11.27;8.20;;;9.10;99.90;;;;;;5084956;28;20109;-73
2021/11/15 02:22:26;;;;;;;9.60;7.25;;;9.00;99.90;;;;;;5083577;28;20021;-74
2021/11/15 02:24:51;;;;;;;11.02;8.25;;;9.00;99.90;;;;;;5066538;28;20116;-74
2021/11/15 02:27:17;;;;;;;10.02;7.30;;;9.00;99.90;;;;;;5082526;28;20499;-73
2021/11/15 02:29:42;;;;;;;10.20;7.88;;;9.00;99.90;;;;;;5069480;28;20032;-73
2021/11/15 02:32:08;;;;;;;13.57;8.75;;;9.00;99.90;;;;;;5081156;28;20032;-73
2021/11/15 02:34:34;;;;;;;9.20;7.05;;;9.00;99.90;;;;;;5073066;28;20020;-73
2021/11/15 02:36:59;;;;;;;8.85;7.30;;;9.00;99.90;;;;;;5075246;28;20113;-73
2021/11/15 02:39:25;;;;;;;9.95;7.03;;;9.00;99.90;;;;;;5077359;28;20048;-75
2021/11/15 02:41:51;;;;;;;11.40;7.25;;;9.00;99.90;;;;;;5079369;28;20024;-74
2021/11/15 02:44:16;;;;;;;12.45;8.65;;;9.00;99.90;;;;;;5077080;28;20048;-74
2021/11/15 02:46:42;;;;;;;12.88;8.93;;;8.90;99.90;;;;;;5086599;28;20033;-74
2021/11/15 02:49:07;;;;;;;11.15;7.90;;;8.90;99.90;;;;;;5060974;28;20020;-74
2021/11/15 02:51:33;;;;;;;9.07;6.97;;;8.90;99.90;;;;;;5057414;28;20017;-75
2021/11/15 02:54:00;;;;;;;10.77;7.75;;;9.00;99.90;;;;;;5084987;28;20054;-73
2021/11/15 02:56:26;;;;;;;11.45;8.73;;;9.00;99.90;;;;;;5060881;28;20029;-74
2021/11/15 02:58:52;;;;;;;13.80;9.13;;;9.00;99.90;;;;;;5082146;28;20084;-75
2021/11/15 03:01:19;;;;;;;12.85;9.15;;;9.00;99.90;;;;;;5085793;28;20036;-74
2021/11/15 03:03:45;;;;;;;12.95;8.25;;;9.00;99.90;;;;;;5084287;28;20033;-73
2021/11/15 03:06:11;;;;;;;11.00;8.68;;;9.10;99.90;;;;;;5056647;28;20028;-74
2021/11/15 03:08:40;;;;;;;10.52;8.23;;;9.10;99.90;;;;;;5078538;28;20025;-74
2021/11/15 03:11:06;;;;;;;11.65;8.27;;;9.10;99.90;;;;;;5085308;28;20025;-74
2021/11/15 03:13:41;;;;;;;12.00;9.00;;;9.10;99.90;;;;;;5080885;28;20076;-74
2021/11/15 03:16:07;;;;;;;17.30;12.05;;;9.00;99.90;;;;;;5070958;28;20029;-74
2021/11/15 03:18:35;;;;;;;19.98;12.18;;;9.00;99.90;;;;;;5070577;28;20096;-74
2021/11/15 03:21:04;;;;;;;21.42;13.23;;;9.00;99.90;;;;;;5070961;28;20051;-74
2021/11/15 03:23:33;;;;;;;21.00;14.75;;;9.00;99.90;;;;;;5054835;28;20508;-74
2021/11/15 03:25:59;;;;;;;21.70;13.88;;;8.90;99.90;;;;;;5055077;28;20029;-74
2021/11/15 03:28:28;;;;;;;20.92;12.77;;;8.90;99.90;;;;;;5075935;28;20052;-74
2021/11/15 03:31:00;;;;;;;19.63;12.73;;;8.90;99.90;;;;;;5073836;28;20024;-74
2021/11/15 03:33:28;;;;;;;17.80;12.70;;;8.80;99.90;;;;;;5065255;28;20021;-75
2021/11/15 03:35:54;;;;;;;26.77;14.52;;;8.80;99.90;;;;;;5095972;28;20012;-74
2021/11/15 03:38:19;;;;;;;21.10;13.90;;;8.80;99.90;;;;;;5097536;28;20047;-74
2021/11/15 03:40:45;;;;;;;20.40;13.45;;;8.80;99.90;;;;;;5098996;28;20080;-74
2021/11/15 03:43:11;;;;;;;21.65;13.43;;;8.80;99.90;;;;;;5095320;28;20017;-74
2021/11/15 03:45:37;;;;;;;17.35;13.25;;;8.80;99.90;;;;;;5098650;28;20050;-74
2021/11/15 03:48:04;;;;;;;18.67;11.50;;;8.80;99.90;;;;;;5095765;28;20462;-74
2021/11/15 03:50:30;;;;;;;18.05;12.98;;;8.80;99.90;;;;;;5093708;28;20017;-73
2021/11/15 03:52:57;;;;;;;19.70;12.90;;;8.80;99.90;;;;;;5074243;28;20081;-73
2021/11/15 03:55:24;;;;;;;20.83;12.82;;;8.80;99.90;;;;;;5083542;28;20027;-74
2021/11/15 03:57:50;;;;;;;20.38;11.73;;;8.80;99.90;;;;;;5078137;28;20395;-74
2021/11/15 04:00:20;;;;;;;16.90;11.57;;;8.80;99.90;;;;;;5088531;28;20016;-74
2021/11/15 04:02:51;;;;;;;17.27;11.82;;;8.80;99.90;;;;;;5095352;28;20019;-73
2021/11/15 04:05:32;;;;;;;20.55;14.27;;;8.80;99.90;;;;;;5096506;28;20155;-74
2021/11/15 04:08:00;;;;;;;15.95;10.75;;;8.80;99.90;;;;;;5093745;28;20021;-73
2021/11/15 04:10:36;;;;;;;17.48;12.77;;;8.80;99.90;;;;;;5092430;28;20025;-74
2021/11/15 04:13:10;;;;;;;20.13;10.60;;;8.80;99.90;;;;;;5074549;28;20008;-74
2021/11/15 04:15:36;;;;;;;16.70;12.20;;;8.70;99.90;;;;;;5063049;28;20099;-74
2021/11/15 04:18:04;;;;;;;18.05;10.48;;;8.80;99.90;;;;;;5089011;28;20036;-74
2021/11/15 04:20:31;;;;;;;14.15;10.48;;;8.70;99.90;;;;;;5085685;28;20029;-73
2021/11/15 04:22:57;;;;;;;15.85;10.75;;;8.70;99.90;;;;;;5067085;28;20076;-74
2021/11/15 04:25:23;;;;;;;14.10;11.05;;;8.70;99.90;;;;;;5082899;28;20028;-74
2021/11/15 04:27:49;;;;;;;17.20;11.25;;;8.80;99.90;;;;;;5081757;28;20029;-75
2021/11/15 04:30:15;;;;;;;17.30;12.10;;;8.70;99.90;;;;;;5066693;28;20031;-74
2021/11/15 04:32:42;;;;;;;14.80;11.07;;;8.70;99.90;;;;;;5076489;28;20066;-74
2021/11/15 04:35:10;;;;;;;15.35;11.50;;;8.70;99.90;;;;;;5078703;28;20468;-74
2021/11/15 04:37:37;;;;;;;13.95;10.25;;;8.70;99.90;;;;;;5078071;28;20082;-75
2021/11/15 04:40:05;;;;;;;14.40;10.55;;;8.70;99.90;;;;;;5062519;22;20156;-75
2021/11/15 04:42:31;;;;;;;14.93;11.27;;;8.70;99.90;;;;;;5029370;28;20048;-76
2021/11/15 04:44:56;;;;;;;18.45;11.13;;;8.80;99.90;;;;;;5026408;28;20029;-75
2021/11/15 04:47:22;;;;;;;19.48;11.90;;;8.80;99.90;;;;;;5030747;28;20033;-75
2021/11/15 04:49:47;;;;;;;17.35;11.48;;;8.80;99.90;;;;;;5029004;28;20026;-76
2021/11/15 04:52:13;;;;;;;15.13;10.93;;;8.80;99.90;;;;;;5030970;28;20148;-75
2021/11/15 04:54:39;;;;;;;16.25;10.75;;;8.80;99.90;;;;;;5024748;28;20022;-75
2021/11/15 04:57:05;;;;;;;14.98;10.48;;;8.80;99.90;;;;;;5030932;28;20033;-74
2021/11/15 04:59:31;;;;;;;13.25;9.65;;;8.80;99.90;;;;;;5024986;28;20152;-74
2021/11/15 05:01:56;;;;;;;14.60;10.98;;;8.80;99.90;;;;;;5025376;28;20113;-75
2021/11/15 05:04:22;;;;;;;16.42;11.45;;;8.70;99.90;;;;;;5017667;28;20034;-74
2021/11/15 05:06:48;;;;;;;13.38;10.38;;;8.80;99.90;;;;;;5026649;28;20100;-75
2021/11/15 05:09:14;;;;;;;13.23;9.77;;;8.80;99.90;;;;;;5024335;28;20030;-76
2021/11/15 05:11:39;;;;;;;12.98;10.27;;;8.80;99.90;;;;;;5006793;28;20033;-75
2021/11/15 05:14:05;;;;;;;15.77;9.98;;;8.70;99.90;;;;;;5010769;28;20034;-76
2021/11/15 05:16:33;;;;;;;12.65;9.65;;;8.70;99.90;;;;;;5014556;28;20022;-76
2021/11/15 05:18:59;;;;;;;14.15;9.98;;;8.70;99.90;;;;;;5025284;28;20026;-76
2021/11/15 05:21:25;;;;;;;13.88;10.48;;;8.80;99.90;;;;;;5026686;28;20293;-76
2021/11/15 05:23:52;;;;;;;17.17;9.25;;;8.80;99.90;;;;;;5015514;28;20090;-75
2021/11/15 05:26:19;;;;;;;13.02;9.13;;;8.80;99.90;;;;;;5037112;28;20064;-75
2021/11/15 05:28:44;;;;;;;13.43;9.02;;;8.70;99.90;;;;;;5021781;28;20030;-75
2021/11/15 05:31:10;;;;;;;12.50;9.68;;;8.70;99.90;;;;;;5022267;28;20026;-75
2021/11/15 05:33:35;;;;;;;14.60;10.88;;;8.70;99.90;;;;;;5033290;28;20022;-75
2021/11/15 05:36:01;;;;;;;15.25;10.13;;;8.70;99.90;;;;;;5032187;28;20030;-75
2021/11/15 05:38:27;;;;;;;12.20;8.70;;;8.70;99.90;;;;;;5020429;28;20079;-75
2021/11/15 05:40:53;;;;;;;15.73;10.50;;;8.60;99.90;;;;;;5012631;28;20042;-75
2021/11/15 05:43:18;;;;;;;14.43;9.35;;;8.50;99.90;;;;;;5009749;28;20041;-76
2021/11/15 05:45:44;;;;;;;15.50;10.02;;;8.60;99.90;;;;;;5006274;28;20034;-75
2021/11/15 05:48:10;;;;;;;12.55;9.40;;;8.50;99.90;;;;;;5016352;28;20036;-75
2021/11/15 05:50:36;;;;;;;13.73;10.38;;;8.60;99.90;;;;;;5010223;28;20030;-75
2021/11/15 05:53:02;;;;;;;17.92;12.18;;;8.60;99.90;;;;;;5017100;28;20053;-75
2021/11/15 05:55:28;;;;;;;13.63;9.43;;;8.60;99.90;;;;;;5018977;28;20025;-75
2021/11/15 05:57:55;;;;;;;13.35;9.93;;;8.60;99.90;;;;;;5020988;28;20040;-75
2021/11/15 06:00:24;;;;;;;11.25;8.63;;;8.60;99.90;;;;;;5013353;28;20096;-75
2021/11/15 06:02:50;;;;;;;12.88;8.40;;;8.60;99.90;;;;;;5012564;28;20053;-76
2021/11/15 06:05:15;;;;;;;10.98;8.43;;;8.60;99.90;;;;;;5019775;28;20054;-74
2021/11/15 06:07:42;;;;;;;13.30;9.00;;;8.60;99.90;;;;;;5016300;28;20029;-75
2021/11/15 06:10:08;;;;;;;12.43;9.00;;;8.50;99.90;;;;;;5014420;28;20478;-75
2021/11/15 06:12:37;;;;;;;13.48;8.75;;;8.50;99.90;;;;;;5016589;28;20026;-74
2021/11/15 06:15:03;;;;;;;12.40;8.77;;;8.50;99.90;;;;;;5019238;28;20445;-75
2021/11/15 06:17:28;;;;;;;12.30;8.25;;;8.60;99.90;;;;;;5014300;28;20019;-75
2021/11/15 06:19:54;;;;;;;13.68;9.57;;;8.60;99.90;;;;;;5013461;28;20417;-75
2021/11/15 06:22:20;;;;;;;11.13;8.07;;;8.60;99.90;;;;;;4997935;28;20117;-74
2021/11/15 06:24:47;;;;;;;11.35;9.15;;;8.50;99.90;;;;;;5012533;28;20041;-74
2021/11/15 06:27:17;;;;;;;12.43;8.50;;;8.50;99.90;;;;;;5005968;28;20018;-75
2021/11/15 06:29:44;;;;;;;12.40;9.60;;;8.60;99.90;;;;;;5010972;28;20457;-74
2021/11/15 06:32:10;;;;;;;11.88;9.30;;;8.60;99.90;;;;;;5006335;28;20481;-75
2021/11/15 06:34:36;;;;;;;12.90;9.52;;;8.50;99.90;;;;;;5010395;28;20026;-74
2021/11/15 06:37:03;;;;;;;17.48;8.95;;;8.50;99.90;;;;;;5001340;28;20109;-76
2021/11/15 06:39:28;;;;;;;13.60;9.43;;;8.50;99.90;;;;;;5011391;28;20376;-75
2021/11/15 06:41:54;;;;;;;14.07;9.25;;;8.40;99.90;;;;;;5004304;28;20121;-75
2021/11/15 06:44:24;;;;;;;12.25;8.85;;;8.50;99.90;;;;;;5014022;28;20117;-75
2021/11/15 06:46:50;;;;;;;12.40;8.95;;;8.50;99.90;;;;;;5011298;28;20123;-75
2021/11/15 06:49:16;;;;;;;14.05;9.18;;;8.50;99.90;;;;;;5014483;28;20392;-75
2021/11/15 06:51:42;;;;;;;14.65;10.85;;;8.50;99.90;;;;;;5016487;28;20109;-76
2021/11/15 06:54:07;;;;;;;12.85;9.20;;;8.50;99.90;;;;;;5014338;28;20268;-76
2021/11/15 06:56:34;;;;;;;11.23;9.32;;;8.40;99.90;;;;;;5012441;28;20362;-75
2021/11/15 06:59:00;;;;;;;13.38;8.90;;;8.50;99.90;;;;;;5014029;28;20037;-76
2021/11/15 07:01:26;;;;;;;12.98;9.68;;;8.40;99.90;;;;;;5004442;28;20501;-76
2021/11/15 07:03:52;;;;;;;13.40;9.32;;;8.50;99.90;;;;;;5016694;28;20034;-75
2021/11/15 07:06:18;;;;;;;18.75;10.18;;;8.50;99.90;;;;;;5016104;28;20049;-74
2021/11/15 07:08:43;;;;;;;15.55;9.77;;;8.60;99.90;;;;;;5028413;28;20065;-75
2021/11/15 07:11:09;;;;;;;11.75;8.63;;;8.50;99.90;;;;;;5033898;28;20030;-74
2021/11/15 07:13:34;;;;;;;14.45;10.35;;;8.50;99.90;;;;;;5034651;28;20030;-75
2021/11/15 07:16:00;;;;;;;11.35;9.23;;;8.50;99.90;;;;;;5016163;28;20045;-75
2021/11/15 07:18:27;;;;;;;15.68;10.60;;;8.60;99.90;;;;;;5010680;28;20085;-75
2021/11/15 07:20:56;;;;;;;14.43;10.02;;;8.60;99.90;;;;;;5014780;28;20041;-75
2021/11/15 07:23:22;;;;;;;11.48;8.48;;;8.50;99.90;;;;;;5011731;28;20433;-75
2021/11/15 07:25:49;;;;;;;16.00;9.50;;;8.50;99.90;;;;;;5006698;28;20486;-76
2021/11/15 07:28:16;;;;;;;13.65;9.27;;;8.50;99.90;;;;;;5005159;28;20116;-75
2021/11/15 07:30:42;;;;;;;16.58;11.23;;;8.50;99.90;;;;;;5015577;28;20033;-75
2021/11/15 07:33:08;;;;;;;14.85;9.90;;;8.50;99.90;;;;;;5005788;28;20022;-74
2021/11/15 07:35:33;;;;;;;15.45;10.90;;;8.50;99.90;;;;;;5008089;28;20485;-74
2021/11/15 07:37:59;;;;;;;14.80;9.32;;;8.50;99.90;;;;;;5015066;28;20057;-77
2021/11/15 07:40:25;;;;;;;13.95;10.07;;;8.60;99.90;;;;;;5014889;28;20433;-75
2021/11/15 07:42:51;;;;;;;14.20;10.07;;;8.50;99.90;;;;;;5010194;28;20232;-75
2021/11/15 07:45:18;;;;;;;15.00;9.90;;;8.50;99.90;;;;;;5005903;28;20061;-75
2021/11/15 07:47:43;;;;;;;13.85;8.88;;;8.50;99.90;;;;;;5009649;28;20037;-75
2021/11/15 07:50:11;;;;;;;13.60;10.35;;;8.50;99.90;;;;;;5005860;28;20041;-75
2021/11/15 07:52:37;;;;;;;16.73;10.40;;;8.50;99.90;;;;;;5013811;28;20389;-75
2021/11/15 07:55:08;;;;;;;13.55;9.45;;;8.40;99.90;;;;;;5006119;28;20447;-76
2021/11/15 07:57:34;;;;;;;15.05;10.27;;;8.50;99.90;;;;;;5012203;28;20041;-77
2021/11/15 08:00:00;;;;;;;16.17;10.43;;;8.60;99.90;;;;;;5013905;28;20060;-76
2021/11/15 08:02:26;;;;;;;15.10;10.13;;;8.60;99.90;;;;;;5012431;28;20030;-76
2021/11/15 08:04:51;;;;;;;18.63;11.32;;;8.60;99.90;;;;;;5001947;28;20102;-76
2021/11/15 08:07:17;;;;;;;15.93;10.45;;;8.60;99.90;;;;;;5009840;28;20041;-76
2021/11/15 08:09:43;;;;;;;14.68;9.43;;;8.60;99.90;;;;;;5011023;28;20053;-76
2021/11/15 08:12:10;;;;;;;15.60;11.05;;;8.60;99.90;;;;;;5008453;28;20083;-74
2021/11/15 08:14:40;;;;;;;17.85;10.35;;;8.60;99.90;;;;;;5010767;28;20030;-74
2021/11/15 08:17:09;;;;;;;16.30;10.20;;;8.50;99.90;;;;;;5006597;28;20057;-73
2021/11/15 08:19:35;;;;;;;16.20;10.68;;;8.50;99.90;;;;;;5029934;28;20036;-73
2021/11/15 08:22:00;;;;;;;16.63;9.98;;;8.50;99.90;;;;;;5014865;28;20026;-74
2021/11/15 08:24:29;;;;;;;17.95;9.43;;;8.50;99.90;;;;;;5015305;28;20030;-74
2021/11/15 08:26:58;;;;;;;13.50;9.38;;;8.60;99.90;;;;;;5014651;28;20022;-74
2021/11/15 08:29:25;;;;;;;16.80;10.32;;;8.60;99.90;;;;;;5014810;28;20029;-74
2021/11/15 08:31:53;;;;;;;16.08;9.73;;;8.60;99.90;;;;;;5014614;28;20428;-74
2021/11/15 08:34:20;;;;;;;15.35;10.38;;;8.50;99.90;;;;;;5013659;28;20026;-75
2021/11/15 08:36:47;;;;;;;16.17;9.48;;;8.50;99.90;;;;;;5013532;28;20038;-72
2021/11/15 08:39:16;;;;;;;14.00;9.55;;;8.70;99.90;;;;;;5013830;28;20038;-73
2021/11/15 08:41:46;;;;;;;14.02;9.55;;;8.70;99.90;;;;;;5012888;28;20054;-74
2021/11/15 08:44:13;;;;;;;14.90;10.03;;;8.70;99.90;;;;;;5013054;28;20034;-74
2021/11/15 08:46:39;;;;;;;13.63;8.90;;;8.70;99.90;;;;;;5014000;28;20502;-74
2021/11/15 08:49:08;;;;;;;14.93;9.15;;;8.80;99.90;;;;;;5013766;28;20049;-72
2021/11/15 08:51:36;;;;;;;15.48;9.65;;;8.70;99.90;;;;;;5013863;28;20076;-72
2021/11/15 08:54:04;;;;;;;13.95;9.10;;;8.70;99.90;;;;;;5003980;28;20395;-73
2021/11/15 08:56:31;;;;;;;16.08;10.00;;;8.60;99.90;;;;;;4994740;28;20034;-73
2021/11/15 08:58:57;;;;;;;16.88;10.20;;;8.60;99.90;;;;;;4994262;28;20026;-73
2021/11/15 09:01:24;;;;;;;15.38;10.65;;;8.70;99.90;;;;;;4995667;28;20586;-73
2021/11/15 09:03:53;;;;;;;15.88;9.65;;;8.70;99.90;;;;;;5015183;28;20026;-73
2021/11/15 09:06:20;;;;;;;14.48;9.63;;;8.80;99.90;;;;;;5014638;28;20501;-73
2021/11/15 09:08:46;;;;;;;14.13;9.90;;;8.80;99.90;;;;;;5009239;28;20465;-75
2021/11/15 09:11:13;;;;;;;17.50;9.80;;;8.80;99.90;;;;;;5013518;28;20026;-70
2021/11/15 09:13:41;;;;;;;14.13;9.40;;;8.90;99.90;;;;;;5010711;28;20037;-75
2021/11/15 09:16:07;;;;;;;14.82;10.15;;;9.00;99.90;;;;;;5004957;28;20025;-74
2021/11/15 09:18:34;;;;;;;17.33;10.75;;;8.90;99.90;;;;;;5010593;28;20034;-75
2021/11/15 09:21:00;;;;;;;16.17;9.85;;;9.00;99.90;;;;;;5014255;28;20044;-74
2021/11/15 09:23:26;;;;;;;12.98;10.40;;;9.00;99.90;;;;;;5013767;28;20392;-74
2021/11/15 09:25:52;;;;;;;13.18;9.93;;;9.00;99.90;;;;;;5013448;28;20367;-75
2021/11/15 09:28:18;;;;;;;15.30;10.65;;;8.90;99.90;;;;;;5006561;28;20429;-74
2021/11/15 09:30:45;;;;;;;13.27;10.35;;;9.00;99.90;;;;;;5007540;28;20025;-74
2021/11/15 09:33:11;;;;;;;13.45;10.95;;;8.90;99.90;;;;;;5005297;28;20069;-75
2021/11/15 09:35:41;;;;;;;15.23;11.05;;;9.00;99.90;;;;;;5006214;28;20056;-74
2021/11/15 09:38:07;;;;;;;15.52;10.52;;;9.00;99.90;;;;;;5011918;28;20090;-75
2021/11/15 09:40:33;;;;;;;17.63;9.80;;;9.00;99.90;;;;;;5010406;28;20117;-76
2021/11/15 09:43:00;;;;;;;15.27;10.75;;;9.00;99.90;;;;;;5000075;28;20069;-74
2021/11/15 09:45:27;;;;;;;13.38;10.07;;;9.10;99.90;;;;;;5008072;28;20029;-74
2021/11/15 09:47:55;;;;;;;18.10;10.25;;;9.10;99.90;;;;;;5008235;28;20049;-74
2021/11/15 09:50:21;;;;;;;14.18;10.43;;;9.20;99.90;;;;;;5010394;28;20014;-74
2021/11/15 09:52:48;;;;;;;13.93;10.65;;;9.20;99.90;;;;;;5015956;28;20025;-74
2021/11/15 09:55:14;;;;;;;13.20;9.80;;;9.10;99.90;;;;;;5027986;28;20026;-75
2021/11/15 09:57:43;;;;;;;15.38;10.50;;;9.20;99.90;;;;;;5023992;28;20036;-75
2021/11/15 10:00:12;;;;;;;14.13;10.32;;;9.20;99.90;;;;;;5012856;28;20025;-74
2021/11/15 10:02:38;;;;;;;16.38;11.35;;;9.20;99.90;;;;;;5013383;28;20493;-76
2021/11/15 10:05:07;;;;;;;14.68;9.75;;;9.20;99.90;;;;;;5000375;28;20026;-75
2021/11/15 10:07:45;;;;;;;13.85;9.73;;;9.30;99.90;;;;;;5012320;28;20058;-76
2021/11/15 10:10:34;;;;;;;11.85;9.27;;;9.30;99.90;;;;;;5010635;28;20046;-76
2021/11/15 10:13:11;;;;;;;15.70;10.38;;;9.30;99.90;;;;;;5004146;28;20042;-75
2021/11/15 10:15:52;;;;;;;15.45;10.93;;;9.30;99.90;;;;;;5009973;28;20026;-76
2021/11/15 10:18:34;;;;;;;;;;;9.20;99.90;;;;;;5007502;28;20018;-76
2021/11/15 10:21:14;;;;;;;15.95;10.20;;;9.20;99.90;;;;;;5007684;28;19906;-76
2021/11/15 10:23:42;;;;;;;19.20;11.05;;;9.10;99.90;;;;;;5010339;28;20531;-76
2021/11/15 10:26:23;;;;;;;15.70;11.27;;;9.10;99.90;;;;;;5013128;28;20026;-76
2021/11/15 10:28:56;;;;;;;16.52;11.68;;;9.00;99.90;;;;;;5020369;28;20066;-75
2021/11/15 10:31:28;;;;;;;15.75;11.40;;;9.10;99.90;;;;;;5030647;28;20033;-76
2021/11/15 10:33:54;;;;;;;14.68;10.93;;;9.10;99.90;;;;;;5026377;28;20041;-76
2021/11/15 10:36:46;;;;;;;17.33;11.32;;;9.10;99.90;;;;;;5020872;28;20041;-76
2021/11/15 10:39:12;;;;;;;15.10;9.88;;;9.20;99.90;;;;;;5016351;28;20068;-75
2021/11/15 10:41:38;;;;;;;11.77;8.57;;;9.20;99.90;;;;;;5013450;28;20081;-75
2021/11/15 10:44:10;;;;;;;15.05;10.70;;;9.20;99.90;;;;;;5009820;28;20501;-75
2021/11/15 10:46:38;;;;;;;15.30;11.20;;;9.20;99.90;;;;;;5013340;28;20058;-75
2021/11/15 10:49:06;;;;;;;15.35;10.75;;;9.20;99.90;;;;;;5011725;28;20026;-73
2021/11/15 10:51:55;;;;;;;15.27;11.50;;;9.20;99.90;;;;;;5011527;28;20018;-76
2021/11/15 10:54:44;;;;;;;16.92;10.50;;;9.10;99.90;;;;;;5004696;28;20064;-73
2021/11/15 10:57:22;;;;;;;16.38;10.35;;;9.10;99.90;;;;;;5009107;28;20052;-75
2021/11/15 11:00:17;;;;;;;14.38;10.70;;;9.10;99.90;;;;;;5009174;28;20022;-74
2021/11/15 11:02:45;;;;;;;14.52;10.98;;;9.10;99.90;;;;;;4984272;28;20426;-75
2021/11/15 11:05:13;;;;;;;17.25;10.93;;;9.20;99.90;;;;;;5009146;28;20029;-74
2021/11/15 11:07:42;;;;;;;15.38;11.70;;;9.10;99.90;;;;;;5006977;28;20029;-73
2021/11/15 11:10:13;;;;;;;14.95;10.55;;;9.10;99.90;;;;;;5008850;28;20478;-74
2021/11/15 11:12:41;;;;;;;15.07;11.27;;;9.10;99.90;;;;;;5010323;28;20036;-75
2021/11/15 11:15:21;;;;;;;16.20;12.10;;;9.10;99.90;;;;;;5000397;28;20118;-74
2021/11/15 11:17:58;;;;;;;13.68;10.85;;;9.10;99.90;;;;;;5002739;28;20021;-75
2021/11/15 11:20:38;;;;;;;16.80;12.30;;;9.10;99.90;;;;;;5002226;28;20045;-74
2021/11/15 11:23:24;;;;;;;16.63;11.70;;;9.10;99.90;;;;;;5010280;28;20537;-74
2021/11/15 11:25:50;;;;;;;16.58;12.25;;;9.10;99.90;;;;;;5007422;28;20295;-74
2021/11/15 11:28:33;;;;;;;15.43;11.13;;;9.10;99.90;;;;;;5005495;28;20030;-74
2021/11/15 11:31:01;;;;;;;18.58;11.65;;;9.20;99.90;;;;;;5010620;28;20440;-73
2021/11/15 11:33:29;;;;;;;17.35;11.52;;;9.30;99.90;;;;;;5013209;28;20450;-73
2021/11/15 11:35:56;;;;;;;17.10;11.52;;;9.30;99.90;;;;;;5012139;28;20029;-73
2021/11/15 11:38:22;;;;;;;14.27;11.45;;;9.30;99.90;;;;;;5012786;28;20028;-75
2021/11/15 11:40:49;;;;;;;17.65;11.85;;;9.30;99.90;;;;;;5014480;28;20034;-73
2021/11/15 11:43:15;;;;;;;15.68;11.48;;;9.30;99.90;;;;;;5012885;28;20030;-75
2021/11/15 11:45:43;;;;;;;19.33;12.07;;;9.40;99.90;;;;;;5011820;28;20103;-74
2021/11/15 11:48:09;;;;;;;18.08;11.77;;;9.30;99.90;;;;;;5011661;28;20025;-74
2021/11/15 11:50:36;;;;;;;14.18;11.18;;;9.30;99.90;;;;;;5014159;28;20041;-74
2021/11/15 11:53:06;;;;;;;14.35;10.95;;;9.30;99.90;;;;;;5013297;28;20013;-75
2021/11/15 11:55:34;;;;;;;13.85;10.88;;;9.20;99.90;;;;;;5020516;28;20030;-74
2021/11/15 11:58:18;;;;;;;17.15;12.45;;;9.30;99.90;;;;;;5013839;28;20034;-74
2021/11/15 12:00:53;;;;;;;17.33;12.68;;;9.30;99.90;;;;;;5011052;28;20026;-73
2021/11/15 12:03:20;;;;;;;14.98;11.10;;;9.30;99.90;;;;;;5017886;28;20033;-75
2021/11/15 12:05:45;;;;;;;21.00;12.68;;;9.20;99.90;;;;;;5017508;28;20029;-73
2021/11/15 12:08:11;;;;;;;17.60;12.65;;;9.20;99.90;;;;;;5019738;28;20018;-74
2021/11/15 12:10:44;;;;;;;15.88;11.88;;;9.20;99.90;;;;;;5018168;28;20033;-74
2021/11/15 12:13:14;;;;;;;14.23;11.10;;;9.20;99.90;;;;;;5012188;28;20029;-75
2021/11/15 12:16:08;;;;;;;16.87;11.50;;;9.30;99.90;;;;;;5012545;28;20054;-75
2021/11/15 12:18:36;;;;;;;18.50;11.00;;;9.20;99.90;;;;;;5009928;28;20018;-75
2021/11/15 12:21:02;;;;;;;16.40;11.75;;;9.20;99.90;;;;;;5043337;22;20052;-76
2021/11/15 12:23:52;;;;;;;16.55;11.10;;;9.20;99.90;;;;;;5040552;28;20068;-76
2021/11/15 12:26:24;;;;;;;16.73;11.30;;;9.10;99.90;;;;;;5032234;28;20037;-76
2021/11/15 12:28:53;;;;;;;18.65;12.93;;;9.10;99.90;;;;;;5019023;28;20392;-75
2021/11/15 12:31:38;;;;;;;19.30;12.98;;;9.00;99.90;;;;;;5018457;28;20025;-76
2021/11/15 12:34:05;;;;;;;18.85;12.38;;;9.10;99.90;;;;;;5032679;28;20018;-77
2021/11/15 12:36:40;;;;;;;17.13;11.85;;;9.10;99.90;;;;;;5026451;28;20029;-76
2021/11/15 12:39:38;;;;;;;16.33;12.13;;;9.00;99.90;;;;;;5020257;28;20032;-76
2021/11/15 12:42:20;;;;;;;17.77;12.95;;;9.10;99.90;;;;;;5042184;28;20109;-75
2021/11/15 12:45:25;;;;;;;15.15;11.98;;;9.20;99.90;;;;;;5033878;28;20327;-77